Time;durP1;ratioP1;P1;durP2;ratioP2;P2;SDS_P1;SDS_P2;PMS_P1;PMS_P2;Temp;Humidity;BMP_temperature;BMP_pressure;BME280_temperature;BME280_humidity;BME280_pressure;Samples;Min_cycle;Max_cycle;Signal;HPM_P1;HPM_P2
2023/01/14 00:02:24;;;;;;;13.73;2.95;;;8.40;99.90;;;;;;5071266;28;20381;-47
2023/01/14 00:04:50;;;;;;;13.75;2.83;;;8.30;99.90;;;;;;5070473;28;20032;-47
2023/01/14 00:07:16;;;;;;;15.23;2.90;;;8.30;99.90;;;;;;5071502;28;20108;-41
2023/01/14 00:09:42;;;;;;;13.65;2.10;;;8.30;99.90;;;;;;5072349;28;20028;-43
2023/01/14 00:12:08;;;;;;;15.98;2.63;;;8.20;99.90;;;;;;5069953;28;20021;-45
2023/01/14 00:14:34;;;;;;;22.77;4.03;;;8.20;99.90;;;;;;5071604;28;20036;-44
2023/01/14 00:17:00;;;;;;;10.82;3.80;;;8.20;99.90;;;;;;5071462;28;20111;-45
2023/01/14 00:19:26;;;;;;;9.68;2.60;;;8.20;99.90;;;;;;5071884;28;20043;-43
2023/01/14 00:21:55;;;;;;;14.25;3.22;;;8.10;99.90;;;;;;5071067;28;20434;-40
2023/01/14 00:24:21;;;;;;;21.92;3.53;;;8.10;99.90;;;;;;5071908;28;20031;-48
2023/01/14 00:26:51;;;;;;;17.08;3.13;;;8.00;99.90;;;;;;5071671;28;20070;-41
2023/01/14 00:29:21;;;;;;;13.90;2.80;;;8.00;99.90;;;;;;5070486;28;20020;-44
2023/01/14 00:31:47;;;;;;;12.27;2.97;;;8.00;99.90;;;;;;5071081;28;20024;-40
2023/01/14 00:34:14;;;;;;;9.93;3.22;;;8.00;99.90;;;;;;5069854;28;20447;-42
2023/01/14 00:36:39;;;;;;;12.65;3.42;;;8.00;99.90;;;;;;5071439;28;20085;-42
2023/01/14 00:39:05;;;;;;;7.43;2.15;;;7.90;99.90;;;;;;5071409;28;20033;-45
2023/01/14 00:41:30;;;;;;;11.63;2.60;;;7.90;99.90;;;;;;5071244;28;20025;-49
2023/01/14 00:43:59;;;;;;;9.40;2.45;;;7.80;99.90;;;;;;5070509;28;20025;-46
2023/01/14 00:46:33;;;;;;;17.58;2.80;;;7.70;99.90;;;;;;5073686;28;20032;-42
2023/01/14 00:49:00;;;;;;;16.95;3.75;;;7.70;99.90;;;;;;5074151;28;20039;-48
2023/01/14 00:51:26;;;;;;;8.02;2.30;;;7.60;99.90;;;;;;5075314;28;20028;-45
2023/01/14 00:53:52;;;;;;;12.05;2.42;;;7.50;99.90;;;;;;5074847;28;20028;-45
2023/01/14 00:56:20;;;;;;;16.17;2.83;;;7.40;99.90;;;;;;5075020;28;20028;-47
2023/01/14 00:58:46;;;;;;;14.18;2.85;;;7.30;99.90;;;;;;5075086;28;20020;-46
2023/01/14 01:01:13;;;;;;;16.58;4.00;;;7.30;99.90;;;;;;5074882;28;20033;-44
2023/01/14 01:03:50;;;;;;;13.48;3.15;;;7.30;99.90;;;;;;5074189;28;20036;-45
2023/01/14 01:06:18;;;;;;;15.90;3.58;;;7.40;99.90;;;;;;5074822;28;20063;-47
2023/01/14 01:08:44;;;;;;;18.83;2.85;;;7.30;99.90;;;;;;5075174;28;20131;-43
2023/01/14 01:11:10;;;;;;;10.00;3.55;;;7.30;99.90;;;;;;5075290;28;20100;-47
2023/01/14 01:13:36;;;;;;;24.70;4.38;;;7.30;99.90;;;;;;5074528;28;20037;-46
2023/01/14 01:16:14;;;;;;;14.45;3.38;;;7.30;99.90;;;;;;5074742;28;20033;-46
2023/01/14 01:18:40;;;;;;;14.45;2.72;;;7.30;99.90;;;;;;5075420;28;20025;-44
2023/01/14 01:21:14;;;;;;;10.02;3.42;;;7.30;99.90;;;;;;5075783;28;20488;-45
2023/01/14 01:23:41;;;;;;;12.70;3.42;;;7.30;99.90;;;;;;5075230;28;20024;-47
2023/01/14 01:26:11;;;;;;;13.35;3.85;;;7.40;99.90;;;;;;5075519;28;20074;-45
2023/01/14 01:28:37;;;;;;;16.27;3.20;;;7.40;99.90;;;;;;5075370;28;20399;-46
2023/01/14 01:31:06;;;;;;;12.27;2.65;;;7.40;99.90;;;;;;5075175;28;20025;-44
2023/01/14 01:33:32;;;;;;;13.75;3.03;;;7.40;99.90;;;;;;5073937;28;20454;-47
2023/01/14 01:36:03;;;;;;;14.20;2.90;;;7.40;99.90;;;;;;5074408;28;20028;-47
2023/01/14 01:38:30;;;;;;;12.48;3.05;;;7.30;99.90;;;;;;5074516;28;20028;-46
2023/01/14 01:40:55;;;;;;;15.85;3.03;;;7.30;99.90;;;;;;5074301;28;20052;-45
2023/01/14 01:43:24;;;;;;;15.68;4.18;;;7.30;99.90;;;;;;5073668;28;20395;-46
2023/01/14 01:45:51;;;;;;;15.10;2.97;;;7.30;99.90;;;;;;5074104;28;20021;-46
2023/01/14 01:48:25;;;;;;;13.02;2.90;;;7.20;99.90;;;;;;5074865;28;20131;-44
2023/01/14 01:50:56;;;;;;;22.08;3.30;;;7.20;99.90;;;;;;5073247;28;20496;-45
2023/01/14 01:53:22;;;;;;;14.38;2.72;;;7.20;99.90;;;;;;5073732;28;20111;-47
2023/01/14 01:55:52;;;;;;;13.93;2.70;;;7.20;99.90;;;;;;5073464;28;20056;-44
2023/01/14 01:58:19;;;;;;;15.80;2.83;;;7.20;99.90;;;;;;5074063;28;20023;-45
2023/01/14 02:00:44;;;;;;;18.80;3.75;;;7.20;99.90;;;;;;5073970;28;20028;-46
2023/01/14 02:03:20;;;;;;;15.95;3.53;;;7.20;99.90;;;;;;5073378;28;20404;-48
2023/01/14 02:05:46;;;;;;;;;;;7.20;99.90;;;;;;5074284;28;20032;-45
2023/01/14 02:08:11;;;;;;;;;;;7.20;99.90;;;;;;5074392;28;19909;-45
2023/01/14 02:10:55;;;;;;;10.98;2.80;;;7.20;99.90;;;;;;5073819;28;19905;-46
2023/01/14 02:13:47;;;;;;;16.45;3.47;;;7.20;99.90;;;;;;5073260;28;20036;-45
2023/01/14 02:16:41;;;;;;;19.23;3.60;;;7.20;99.90;;;;;;5073704;28;20025;-47
2023/01/14 02:19:25;;;;;;;13.70;2.72;;;7.20;99.90;;;;;;5066166;28;20040;-45
2023/01/14 02:22:08;;;;;;;19.08;4.35;;;7.20;99.90;;;;;;5073199;28;20090;-48
2023/01/14 02:25:03;;;;;;;13.27;2.55;;;7.10;99.90;;;;;;5073572;28;20392;-48
2023/01/14 02:27:39;;;;;;;25.42;3.05;;;7.10;99.90;;;;;;5073406;28;20020;-47
2023/01/14 02:30:16;;;;;;;;;;;7.10;99.90;;;;;;5074284;28;20021;-49
2023/01/14 02:32:53;;;;;;;11.23;3.08;;;7.10;99.90;;;;;;5072538;28;19963;-45
2023/01/14 02:35:47;;;;;;;16.83;3.22;;;7.00;99.90;;;;;;5073455;28;20021;-44
2023/01/14 02:38:33;;;;;;;15.45;3.35;;;7.00;99.90;;;;;;5073550;28;20020;-47
2023/01/14 02:44:23;;;;;;;19.80;3.65;;;7.00;99.90;;;;;;5063136;28;20102;-45
2023/01/14 02:46:53;;;;;;;15.27;4.18;;;7.00;99.90;;;;;;5074092;28;20016;-48
2023/01/14 02:49:42;;;;;;;15.02;3.20;;;7.00;99.90;;;;;;5071701;28;20032;-45
2023/01/14 02:52:09;;;;;;;11.18;3.03;;;7.00;99.90;;;;;;5072296;28;20020;-48
2023/01/14 02:54:35;;;;;;;21.80;3.63;;;6.90;99.90;;;;;;5072850;28;20032;-47
2023/01/14 02:57:08;;;;;;;21.70;3.55;;;7.00;99.90;;;;;;5072546;28;20044;-44
2023/01/14 02:59:57;;;;;;;21.23;2.55;;;6.90;99.90;;;;;;5072766;28;20074;-45
2023/01/14 03:02:43;;;;;;;24.30;3.95;;;6.90;99.90;;;;;;5072090;28;20112;-46
2023/01/14 03:05:08;;;;;;;16.13;3.20;;;6.90;99.90;;;;;;5073133;28;20105;-45
2023/01/14 03:07:45;;;;;;;18.17;3.88;;;6.80;99.90;;;;;;5072605;28;20059;-49
2023/01/14 03:10:28;;;;;;;19.42;4.15;;;6.80;99.90;;;;;;5073072;28;20542;-46
2023/01/14 03:13:13;;;;;;;20.05;3.58;;;6.70;99.90;;;;;;5071120;28;20035;-43
2023/01/14 03:16:07;;;;;;;14.75;3.55;;;6.60;99.90;;;;;;5072844;28;20526;-46
2023/01/14 03:18:51;;;;;;;20.50;3.58;;;6.60;99.90;;;;;;5073251;28;20479;-49
2023/01/14 03:21:32;;;;;;;13.02;2.78;;;6.60;99.90;;;;;;5072063;28;20062;-46
2023/01/14 03:24:29;;;;;;;15.15;4.30;;;6.50;99.90;;;;;;5072477;28;20025;-46
2023/01/14 03:26:59;;;;;;;19.02;3.20;;;6.50;99.90;;;;;;5072833;28;20530;-50
2023/01/14 03:29:55;;;;;;;16.92;4.35;;;6.50;99.90;;;;;;5072677;28;20063;-51
2023/01/14 03:32:26;;;;;;;13.23;3.63;;;6.50;99.90;;;;;;5071022;28;20033;-49
2023/01/14 03:34:59;;;;;;;9.25;3.55;;;6.40;99.90;;;;;;5072365;28;20036;-50
2023/01/14 03:37:28;;;;;;;15.38;3.13;;;6.30;99.90;;;;;;5070793;28;20111;-46
2023/01/14 03:39:54;;;;;;;20.52;4.00;;;6.30;99.90;;;;;;5072004;28;20021;-42
2023/01/14 03:42:23;;;;;;;21.65;3.88;;;6.20;99.90;;;;;;5071407;28;20032;-47
2023/01/14 03:44:57;;;;;;;16.42;4.65;;;6.20;99.90;;;;;;5072055;28;20028;-47
2023/01/14 03:47:27;;;;;;;14.40;3.45;;;6.20;99.90;;;;;;5071709;28;20471;-47
2023/01/14 03:49:53;;;;;;;10.73;2.72;;;6.10;99.90;;;;;;5071879;28;20020;-44
2023/01/14 03:52:31;;;;;;;13.60;3.38;;;6.10;99.90;;;;;;5070971;28;20028;-46
2023/01/14 03:55:15;;;;;;;16.85;2.88;;;6.10;99.90;;;;;;5071781;28;20490;-49
2023/01/14 03:57:49;;;;;;;23.63;3.55;;;6.10;99.90;;;;;;5071482;28;20040;-46
2023/01/14 04:00:19;;;;;;;15.73;3.50;;;6.10;99.90;;;;;;5072351;28;20119;-47
2023/01/14 04:02:46;;;;;;;12.43;2.65;;;6.10;99.90;;;;;;5071646;28;20100;-45
2023/01/14 04:05:12;;;;;;;15.18;3.50;;;6.10;99.90;;;;;;5071698;28;20066;-48
2023/01/14 04:07:37;;;;;;;16.58;3.55;;;6.10;99.90;;;;;;5071617;28;20029;-44
2023/01/14 04:10:03;;;;;;;16.73;3.45;;;6.20;99.90;;;;;;5071725;28;20021;-44
2023/01/14 04:12:29;;;;;;;15.95;4.47;;;6.20;99.90;;;;;;5070808;28;20027;-42
2023/01/14 04:17:39;;;;;;;20.17;3.38;;;6.20;99.90;;;;;;5071530;28;20530;-44
2023/01/14 04:20:05;;;;;;;10.73;2.60;;;6.20;99.90;;;;;;5071015;28;20024;-46
2023/01/14 04:22:30;;;;;;;17.42;3.33;;;6.20;99.90;;;;;;5070732;28;20115;-44
2023/01/14 04:24:56;;;;;;;17.08;3.28;;;6.20;99.90;;;;;;5071307;28;20128;-44
2023/01/14 04:27:21;;;;;;;14.73;3.75;;;6.30;99.90;;;;;;5071399;28;20104;-47
2023/01/14 04:29:47;;;;;;;18.88;3.47;;;6.30;99.90;;;;;;5071977;28;20034;-47
2023/01/14 04:32:13;;;;;;;17.08;3.75;;;6.30;99.90;;;;;;5070627;28;20027;-48
2023/01/14 04:34:38;;;;;;;14.75;2.90;;;6.40;99.90;;;;;;5071390;28;20062;-48
2023/01/14 04:37:04;;;;;;;23.17;4.65;;;6.40;99.90;;;;;;5071226;28;20036;-46
2023/01/14 04:39:29;;;;;;;12.13;3.67;;;6.50;99.90;;;;;;5071239;28;20404;-45
2023/01/14 04:44:39;;;;;;;13.00;3.08;;;6.50;99.90;;;;;;5071489;28;20051;-43
2023/01/14 04:47:04;;;;;;;15.10;3.03;;;6.50;99.90;;;;;;5071113;28;20029;-44
2023/01/14 04:49:30;;;;;;;14.10;2.90;;;6.50;99.90;;;;;;5071982;28;20028;-45
2023/01/14 04:51:55;;;;;;;25.85;4.78;;;6.40;99.90;;;;;;5070325;28;20036;-42
2023/01/14 04:54:21;;;;;;;14.23;2.83;;;6.50;99.90;;;;;;5071038;28;20029;-46
2023/01/14 04:56:46;;;;;;;15.70;3.97;;;6.50;99.90;;;;;;5070953;28;20036;-46
2023/01/14 04:59:12;;;;;;;21.40;4.90;;;6.50;99.90;;;;;;5070918;28;20368;-46
2023/01/14 05:01:37;;;;;;;12.75;2.83;;;6.50;99.90;;;;;;5071019;28;20107;-49
2023/01/14 05:04:03;;;;;;;18.13;4.53;;;6.60;99.90;;;;;;5068708;28;20035;-44
2023/01/14 05:06:29;;;;;;;17.63;3.03;;;6.60;99.90;;;;;;5069704;28;20129;-44
2023/01/14 05:08:55;;;;;;;12.85;3.70;;;6.70;99.90;;;;;;5070961;28;20104;-46
2023/01/14 05:11:21;;;;;;;19.83;3.97;;;6.70;99.90;;;;;;5070973;28;20486;-47
2023/01/14 05:13:47;;;;;;;16.67;3.58;;;6.70;99.90;;;;;;5070431;28;20025;-47
2023/01/14 05:16:12;;;;;;;14.32;4.18;;;6.70;99.90;;;;;;5069483;28;20031;-46
2023/01/14 05:18:38;;;;;;;15.88;3.20;;;6.70;99.90;;;;;;5070953;28;20047;-46
2023/01/14 05:21:04;;;;;;;17.50;2.55;;;6.80;99.90;;;;;;5070821;28;20056;-45
2023/01/14 05:23:30;;;;;;;20.45;5.00;;;6.70;99.90;;;;;;5070035;28;20043;-44
2023/01/14 05:25:55;;;;;;;26.75;4.75;;;6.70;99.90;;;;;;5069273;28;20021;-50
2023/01/14 05:28:21;;;;;;;13.75;3.33;;;6.70;99.90;;;;;;5070956;28;20025;-47
2023/01/14 05:30:46;;;;;;;19.38;4.32;;;6.70;99.90;;;;;;5070729;28;20069;-49
2023/01/14 05:33:13;;;;;;;19.35;3.00;;;6.80;99.90;;;;;;5073478;28;20029;-47
2023/01/14 05:35:38;;;;;;;19.60;3.58;;;6.70;99.90;;;;;;5074396;28;20085;-46
2023/01/14 05:38:05;;;;;;;12.57;3.45;;;6.80;99.90;;;;;;5074339;28;20103;-45
2023/01/14 05:40:31;;;;;;;19.10;4.50;;;6.80;99.90;;;;;;5072839;28;20027;-49
2023/01/14 05:45:48;;;;;;;19.27;3.40;;;6.80;99.90;;;;;;5074043;28;20035;-46
2023/01/14 05:48:17;;;;;;;13.75;2.90;;;6.80;99.90;;;;;;5074241;28;20017;-46
2023/01/14 05:50:43;;;;;;;21.80;3.13;;;6.80;99.90;;;;;;5074018;28;20028;-45
2023/01/14 05:53:09;;;;;;;21.25;3.88;;;6.70;99.90;;;;;;5073429;28;20020;-44
2023/01/14 05:55:35;;;;;;;15.90;3.25;;;6.70;99.90;;;;;;5073964;28;20086;-48
2023/01/14 05:58:03;;;;;;;15.32;2.60;;;6.70;99.90;;;;;;5094438;22;20113;-55
2023/01/14 06:06:22;;;;;;;14.10;3.80;;;6.70;99.90;;;;;;5074049;28;20050;-53
2023/01/14 06:08:49;;;;;;;19.90;3.63;;;6.70;99.90;;;;;;5036193;28;20154;-51
2023/01/14 06:11:14;;;;;;;17.75;3.22;;;6.70;99.90;;;;;;5053643;28;20449;-55
2023/01/14 06:13:40;;;;;;;14.73;2.95;;;6.70;99.90;;;;;;5053265;28;20071;-56
2023/01/14 06:16:08;;;;;;;13.10;3.22;;;6.70;99.90;;;;;;5053642;28;20507;-55
2023/01/14 06:18:43;;;;;;;15.55;2.95;;;6.70;99.90;;;;;;5053694;28;20021;-53
2023/01/14 06:21:14;;;;;;;13.50;3.75;;;6.60;99.90;;;;;;5053490;28;20094;-55
2023/01/14 06:23:40;;;;;;;17.10;4.47;;;6.60;99.90;;;;;;5051181;28;20029;-56
2023/01/14 06:26:15;;;;;;;22.25;5.47;;;6.60;99.90;;;;;;5052581;28;20154;-55
2023/01/14 06:28:40;;;;;;;16.75;3.38;;;6.60;99.90;;;;;;5035543;28;20017;-54
2023/01/14 06:31:10;;;;;;;28.90;5.35;;;6.60;99.90;;;;;;5053199;28;20063;-56
2023/01/14 06:33:35;;;;;;;9.82;2.80;;;6.60;99.90;;;;;;5051262;28;20033;-55
2023/01/14 06:36:01;;;;;;;21.70;3.35;;;6.50;99.90;;;;;;5051607;28;20516;-51
2023/01/14 06:38:26;;;;;;;15.48;3.83;;;6.60;99.90;;;;;;5053190;28;20025;-53
2023/01/14 06:40:52;;;;;;;10.32;2.63;;;6.60;99.90;;;;;;5051879;28;20031;-50
2023/01/14 06:43:17;;;;;;;16.25;3.72;;;6.60;99.90;;;;;;5052108;28;20024;-51
2023/01/14 06:45:43;;;;;;;14.65;3.63;;;6.50;99.90;;;;;;5053066;28;20045;-54
2023/01/14 06:48:08;;;;;;;18.73;3.72;;;6.50;99.90;;;;;;5052955;28;20409;-51
2023/01/14 06:50:34;;;;;;;24.48;4.00;;;6.40;99.90;;;;;;5051646;28;20031;-55
2023/01/14 06:53:00;;;;;;;13.68;3.33;;;6.50;99.90;;;;;;5050898;28;20508;-52
2023/01/14 06:55:26;;;;;;;16.75;3.72;;;6.50;99.90;;;;;;5052899;28;20025;-54
2023/01/14 06:57:52;;;;;;;15.52;3.00;;;6.40;99.90;;;;;;5052634;28;20412;-56
2023/01/14 07:00:18;;;;;;;18.80;3.45;;;6.50;99.90;;;;;;5052889;28;20029;-55
2023/01/14 07:02:43;;;;;;;18.27;3.80;;;6.50;99.90;;;;;;5052065;28;20115;-55
2023/01/14 07:05:09;;;;;;;13.77;3.22;;;6.50;99.90;;;;;;5052731;28;20100;-57
2023/01/14 07:07:34;;;;;;;22.20;3.28;;;6.50;99.90;;;;;;5052561;28;20029;-54
2023/01/14 07:10:00;;;;;;;16.10;3.60;;;6.50;99.90;;;;;;5052575;28;20021;-51
2023/01/14 07:12:25;;;;;;;14.10;4.30;;;6.50;99.90;;;;;;5052099;28;20028;-56
2023/01/14 07:14:51;;;;;;;23.30;4.40;;;6.50;99.90;;;;;;5052686;28;20041;-56
2023/01/14 07:17:16;;;;;;;11.30;3.33;;;6.60;99.90;;;;;;5052249;28;20028;-55
2023/01/14 07:19:42;;;;;;;20.88;4.15;;;6.60;99.90;;;;;;5052435;28;20032;-57
2023/01/14 07:22:07;;;;;;;14.52;3.45;;;6.60;99.90;;;;;;5051514;28;20056;-54
2023/01/14 07:24:33;;;;;;;17.48;3.38;;;6.60;99.90;;;;;;5052368;28;20074;-54
2023/01/14 07:26:58;;;;;;;13.23;2.83;;;6.60;99.90;;;;;;5051939;28;20064;-56
2023/01/14 07:29:24;;;;;;;15.32;3.95;;;6.60;99.90;;;;;;5052491;28;20472;-57
2023/01/14 07:31:51;;;;;;;15.38;3.15;;;6.70;99.90;;;;;;5052151;28;20025;-55
2023/01/14 07:34:16;;;;;;;15.32;3.25;;;6.70;99.90;;;;;;5051937;28;20032;-54
2023/01/14 07:36:42;;;;;;;13.02;3.35;;;6.70;99.90;;;;;;5051809;28;20037;-48
2023/01/14 07:39:08;;;;;;;15.38;2.85;;;6.80;99.90;;;;;;5045055;28;20450;-55
2023/01/14 07:41:34;;;;;;;15.40;2.88;;;6.80;99.90;;;;;;5022643;28;20060;-56
2023/01/14 07:44:00;;;;;;;17.58;3.75;;;6.80;99.90;;;;;;5050282;28;20118;-54
2023/01/14 07:46:26;;;;;;;11.07;3.00;;;6.80;99.90;;;;;;5044118;28;20025;-50
2023/01/14 07:48:51;;;;;;;7.18;2.80;;;6.90;99.90;;;;;;5032044;28;20049;-50
2023/01/14 07:51:20;;;;;;;12.60;3.25;;;6.90;99.90;;;;;;5041212;28;20036;-51
2023/01/14 07:53:47;;;;;;;9.80;2.50;;;6.80;99.90;;;;;;5050821;28;20028;-55
2023/01/14 07:56:12;;;;;;;10.55;3.38;;;6.80;99.90;;;;;;5051222;28;20025;-50
2023/01/14 07:58:38;;;;;;;14.35;3.30;;;6.90;99.90;;;;;;5051734;28;20043;-51
2023/01/14 08:01:08;;;;;;;8.43;2.50;;;6.90;99.90;;;;;;5033792;28;20028;-51
2023/01/14 08:03:35;;;;;;;14.93;3.08;;;6.90;99.90;;;;;;5040529;28;20079;-52
2023/01/14 08:06:01;;;;;;;17.30;4.63;;;6.90;99.90;;;;;;5014669;28;20503;-53
2023/01/14 08:08:27;;;;;;;11.40;2.70;;;6.90;99.90;;;;;;5051088;28;20115;-51
2023/01/14 08:10:53;;;;;;;12.23;2.80;;;6.80;99.90;;;;;;5052215;28;20492;-50
2023/01/14 08:13:19;;;;;;;16.13;3.72;;;6.90;99.90;;;;;;5051472;28;20108;-54
2023/01/14 08:15:45;;;;;;;20.35;4.07;;;6.90;99.90;;;;;;5043185;28;20527;-52
2023/01/14 08:18:10;;;;;;;11.90;2.72;;;6.90;99.90;;;;;;5030079;28;20021;-50
2023/01/14 08:20:36;;;;;;;11.15;2.63;;;7.00;99.90;;;;;;5041411;28;20067;-48
2023/01/14 08:23:01;;;;;;;12.35;2.95;;;7.00;99.90;;;;;;5042450;28;20029;-53
2023/01/14 08:25:28;;;;;;;17.85;3.58;;;7.00;99.90;;;;;;5031319;28;20037;-51
2023/01/14 08:27:54;;;;;;;14.35;3.30;;;7.00;99.90;;;;;;5031305;28;20024;-51
2023/01/14 08:30:19;;;;;;;11.65;2.60;;;7.00;99.90;;;;;;5031385;28;20425;-53
2023/01/14 08:32:47;;;;;;;10.85;3.00;;;7.10;99.90;;;;;;5013023;28;20013;-53
2023/01/14 08:35:12;;;;;;;10.75;3.30;;;7.10;99.90;;;;;;5031265;28;20052;-53
2023/01/14 08:37:40;;;;;;;21.15;3.42;;;7.10;99.90;;;;;;5031289;28;20037;-52
2023/01/14 08:40:06;;;;;;;12.00;4.03;;;7.20;99.90;;;;;;5031420;28;20022;-48
2023/01/14 08:42:31;;;;;;;17.40;4.28;;;7.10;99.90;;;;;;5030718;28;20627;-53
2023/01/14 08:44:57;;;;;;;15.80;3.42;;;7.20;99.90;;;;;;5031219;28;20090;-51
2023/01/14 08:47:22;;;;;;;12.48;3.20;;;7.20;99.90;;;;;;5031112;28;20022;-52
2023/01/14 08:49:48;;;;;;;22.17;5.00;;;7.20;99.90;;;;;;5031165;28;20437;-50
2023/01/14 08:52:13;;;;;;;16.95;3.00;;;7.20;99.90;;;;;;5040645;28;20496;-49
2023/01/14 08:54:39;;;;;;;18.17;3.63;;;7.20;99.90;;;;;;5035479;28;20029;-51
2023/01/14 08:57:04;;;;;;;14.00;3.17;;;7.20;99.90;;;;;;5039249;28;20067;-53
2023/01/14 08:59:30;;;;;;;10.45;3.22;;;7.20;99.90;;;;;;5033285;28;20029;-54
2023/01/14 09:01:55;;;;;;;19.25;2.92;;;7.30;99.90;;;;;;5046860;28;20025;-52
2023/01/14 09:04:24;;;;;;;14.10;4.05;;;7.30;99.90;;;;;;5050515;28;20044;-49
2023/01/14 09:17:58;;;;;;;12.80;3.05;;;7.60;99.90;;;;;;5034916;28;20040;-51
2023/01/14 09:20:30;;;;;;;14.30;3.25;;;7.60;99.90;;;;;;5042245;28;20503;-54
2023/01/14 09:22:56;;;;;;;13.88;3.03;;;7.60;99.90;;;;;;5044773;28;20400;-53
2023/01/14 09:25:21;;;;;;;15.18;4.43;;;7.60;99.90;;;;;;5034612;28;20034;-50
2023/01/14 09:27:47;;;;;;;16.80;3.53;;;7.60;99.90;;;;;;5047888;28;20033;-48
2023/01/14 09:30:12;;;;;;;14.02;3.80;;;7.60;99.90;;;;;;5049032;28;20030;-47
2023/01/14 09:32:39;;;;;;;11.13;2.83;;;7.70;99.90;;;;;;5049119;28;20214;-46
2023/01/14 09:35:06;;;;;;;8.82;2.55;;;7.70;99.90;;;;;;5050447;28;20029;-52
2023/01/14 09:37:33;;;;;;;14.77;3.50;;;7.80;99.90;;;;;;5032505;28;20528;-46
2023/01/14 09:39:59;;;;;;;10.40;2.60;;;7.80;99.90;;;;;;5046352;28;20059;-51
2023/01/14 09:42:32;;;;;;;11.43;2.60;;;7.90;99.90;;;;;;5046007;28;20056;-46
2023/01/14 09:45:22;;;;;;;6.05;2.10;;;7.90;99.90;;;;;;5037361;28;20053;-48
2023/01/14 09:47:48;;;;;;;11.65;2.47;;;7.90;99.90;;;;;;5053163;28;20080;-49
2023/01/14 09:50:19;;;;;;;10.95;2.63;;;8.00;99.90;;;;;;5049568;28;20057;-51
2023/01/14 09:53:07;;;;;;;10.88;3.97;;;8.00;99.90;;;;;;5035009;28;20041;-47
2023/01/14 09:55:43;;;;;;;9.55;3.10;;;8.00;99.90;;;;;;5038019;28;20095;-49
2023/01/14 09:58:13;;;;;;;;;;;8.10;99.90;;;;;;5051883;28;20466;-51
2023/01/14 10:00:47;;;;;;;10.75;2.10;;;8.10;99.90;;;;;;5048576;28;19979;-52
2023/01/14 10:03:37;;;;;;;11.98;2.88;;;8.00;99.90;;;;;;5036292;28;20543;-53
2023/01/14 10:06:10;;;;;;;4.20;1.95;;;8.00;99.90;;;;;;5047115;28;20017;-55
2023/01/14 10:08:41;;;;;;;11.63;2.35;;;8.10;99.90;;;;;;5046440;28;20547;-46
2023/01/14 10:11:08;;;;;;;9.65;1.88;;;8.10;99.90;;;;;;5044242;28;20020;-48
2023/01/14 10:13:39;;;;;;;6.85;2.95;;;8.10;99.90;;;;;;5034327;28;20044;-51
2023/01/14 10:16:15;;;;;;;6.78;2.30;;;8.20;99.90;;;;;;5033572;28;20022;-49
2023/01/14 10:19:10;;;;;;;4.72;2.05;;;8.10;99.90;;;;;;5034300;28;20339;-50
2023/01/14 10:21:44;;;;;;;11.07;2.40;;;8.10;99.90;;;;;;5033830;28;20060;-49
2023/01/14 10:24:13;;;;;;;11.50;2.78;;;8.20;99.90;;;;;;5033063;28;20450;-49
2023/01/14 10:26:39;;;;;;;7.57;2.40;;;8.20;99.90;;;;;;5033497;28;20029;-47
2023/01/14 10:29:16;;;;;;;6.22;2.47;;;8.20;99.90;;;;;;5035397;28;20508;-49
2023/01/14 10:31:46;;;;;;;10.20;2.63;;;8.20;99.90;;;;;;5034604;28;20033;-50
2023/01/14 10:34:16;;;;;;;8.68;2.35;;;8.20;99.90;;;;;;5049181;28;20455;-48
2023/01/14 10:36:41;;;;;;;9.32;2.20;;;8.20;99.90;;;;;;5034212;28;20356;-50
2023/01/14 10:39:10;;;;;;;3.95;2.00;;;8.30;99.90;;;;;;5040534;28;20050;-52
2023/01/14 10:41:51;;;;;;;14.57;4.13;;;8.40;99.90;;;;;;5052901;28;20288;-48
2023/01/14 10:44:29;;;;;;;6.50;2.35;;;8.40;99.90;;;;;;5050894;28;20417;-49
2023/01/14 10:46:58;;;;;;;6.72;2.33;;;8.40;99.90;;;;;;5052573;28;20056;-50
2023/01/14 10:49:51;;;;;;;7.20;2.17;;;8.50;99.90;;;;;;5052533;28;20116;-47
2023/01/14 10:52:21;;;;;;;7.10;2.45;;;8.50;99.90;;;;;;5050532;28;20020;-52
2023/01/14 10:55:10;;;;;;;7.28;2.05;;;8.50;99.90;;;;;;5047912;28;20033;-51
2023/01/14 10:57:39;;;;;;;8.32;2.53;;;8.50;99.90;;;;;;5033105;28;20034;-49
2023/01/14 11:00:08;;;;;;;8.25;2.60;;;8.60;99.90;;;;;;5049895;28;20114;-47
2023/01/14 11:02:40;;;;;;;7.25;2.20;;;8.60;99.90;;;;;;5051640;28;20025;-46
2023/01/14 11:05:28;;;;;;;7.55;2.85;;;8.60;99.90;;;;;;5051078;28;20112;-51
2023/01/14 11:07:57;;;;;;;9.25;2.63;;;8.60;99.90;;;;;;5052075;28;20033;-47
2023/01/14 11:10:28;;;;;;;7.10;2.03;;;8.60;99.90;;;;;;5052681;28;20473;-48
2023/01/14 11:13:25;;;;;;;5.85;2.28;;;8.50;99.90;;;;;;5051833;28;20040;-50
2023/01/14 11:15:50;;;;;;;9.73;2.40;;;8.50;99.90;;;;;;5047616;28;20132;-54
2023/01/14 11:18:19;;;;;;;8.73;2.13;;;8.50;99.90;;;;;;5026280;28;20107;-55
2023/01/14 11:21:16;;;;;;;4.38;2.17;;;8.50;99.90;;;;;;5040250;28;20071;-57
2023/01/14 11:24:00;;;;;;;7.72;2.60;;;8.50;99.90;;;;;;4990160;28;20444;-56
2023/01/14 11:26:39;;;;;;;5.95;2.00;;;8.60;99.90;;;;;;5049284;28;20045;-56
2023/01/14 11:29:16;;;;;;;16.90;2.50;;;8.60;99.90;;;;;;5045877;28;20021;-58
2023/01/14 11:31:43;;;;;;;11.88;2.55;;;8.60;99.90;;;;;;5028872;28;20025;-50
2023/01/14 11:34:38;;;;;;;8.18;2.05;;;8.60;99.90;;;;;;5030524;28;20029;-51
2023/01/14 11:37:10;;;;;;;7.40;2.10;;;8.60;99.90;;;;;;5045248;28;20057;-58
2023/01/14 11:39:38;;;;;;;9.32;2.15;;;8.60;99.90;;;;;;5030912;28;20033;-53
2023/01/14 11:42:22;;;;;;;12.73;3.20;;;8.70;99.90;;;;;;5030191;28;20317;-47
2023/01/14 11:45:12;;;;;;;11.40;2.08;;;8.70;99.90;;;;;;5032630;28;20052;-54
2023/01/14 11:47:53;;;;;;;4.57;1.80;;;8.70;99.90;;;;;;5013617;28;20025;-59
2023/01/14 11:50:27;;;;;;;6.97;1.92;;;8.70;99.90;;;;;;5039472;28;20044;-56
2023/01/14 11:52:56;;;;;;;4.97;2.35;;;8.70;99.90;;;;;;5049821;28;20032;-55
2023/01/14 11:55:22;;;;;;;6.47;2.53;;;8.70;99.90;;;;;;5029876;28;20091;-58
2023/01/14 11:57:48;;;;;;;8.98;2.28;;;8.70;99.90;;;;;;5031226;28;20029;-49
2023/01/14 12:00:14;;;;;;;10.88;1.65;;;8.70;99.90;;;;;;5030911;28;20025;-60
2023/01/14 12:02:46;;;;;;;9.93;2.20;;;8.70;99.90;;;;;;5040568;28;20025;-51
2023/01/14 12:05:17;;;;;;;7.10;2.28;;;8.70;99.90;;;;;;5052017;28;20044;-52
2023/01/14 12:07:52;;;;;;;8.23;1.80;;;8.70;99.90;;;;;;5044880;28;20024;-50
2023/01/14 12:10:41;;;;;;;7.50;2.17;;;8.70;99.90;;;;;;5031325;28;20017;-60
2023/01/14 12:19:22;;;;;;;9.30;2.47;;;8.80;99.90;;;;;;5036663;28;20036;-54
2023/01/14 12:22:12;;;;;;;6.45;1.90;;;8.80;99.90;;;;;;5030062;28;20033;-51
2023/01/14 12:24:55;;;;;;;5.25;2.10;;;8.80;99.90;;;;;;5032855;28;20031;-57
2023/01/14 12:27:43;;;;;;;6.43;1.50;;;8.80;99.90;;;;;;5039769;28;20112;-51
2023/01/14 12:30:25;;;;;;;5.68;2.30;;;8.80;99.90;;;;;;5030190;28;20482;-50
2023/01/14 12:33:04;;;;;;;6.40;2.70;;;8.90;99.90;;;;;;5044555;28;20025;-48
2023/01/14 12:35:49;;;;;;;3.83;2.25;;;8.90;99.90;;;;;;5049112;28;20079;-53
2023/01/14 12:46:56;;;;;;;7.53;2.15;;;8.90;99.90;;;;;;5052840;28;20087;-52
2023/01/14 12:49:21;;;;;;;3.83;2.25;;;8.90;99.90;;;;;;5052939;28;20037;-61
2023/01/14 12:51:47;;;;;;;7.72;2.22;;;9.00;99.90;;;;;;5035650;28;20025;-62
2023/01/14 12:54:24;;;;;;;7.97;2.05;;;9.00;99.90;;;;;;5053925;28;20028;-62
2023/01/14 12:56:54;;;;;;;7.78;1.58;;;9.00;99.90;;;;;;5050960;28;20040;-60
2023/01/14 12:59:43;;;;;;;5.05;2.42;;;9.00;99.90;;;;;;5034447;28;20037;-50
2023/01/14 13:02:26;;;;;;;5.78;1.83;;;9.00;99.90;;;;;;5034394;28;20034;-44
2023/01/14 13:05:04;;;;;;;5.20;2.25;;;9.00;99.90;;;;;;5034644;28;20029;-45
2023/01/14 13:07:35;;;;;;;3.72;1.55;;;9.10;99.90;;;;;;5033060;28;20018;-51
2023/01/14 13:10:05;;;;;;;6.35;1.85;;;9.10;99.90;;;;;;5034421;28;20064;-51
2023/01/14 13:12:39;;;;;;;4.75;1.60;;;9.10;99.90;;;;;;5038206;28;20048;-52
2023/01/14 13:15:17;;;;;;;4.65;1.52;;;9.10;99.90;;;;;;5037892;28;20028;-48
2023/01/14 13:17:49;;;;;;;7.50;1.67;;;9.10;99.90;;;;;;5034389;28;20033;-51
2023/01/14 13:20:18;;;;;;;2.78;1.40;;;9.10;99.90;;;;;;5048810;28;20400;-46
2023/01/14 13:22:48;;;;;;;4.38;1.60;;;9.10;99.90;;;;;;5052261;28;20408;-48
2023/01/14 13:25:33;;;;;;;4.45;1.52;;;9.10;99.90;;;;;;5053693;28;20406;-53
2023/01/14 13:28:03;;;;;;;4.47;1.40;;;9.00;99.90;;;;;;5053717;28;20434;-46
2023/01/14 13:30:29;;;;;;;3.00;1.40;;;9.00;99.90;;;;;;5053479;28;20108;-52
2023/01/14 13:33:00;;;;;;;2.28;1.30;;;9.10;99.90;;;;;;5051000;28;20104;-45
2023/01/14 13:35:28;;;;;;;3.97;1.50;;;9.10;99.90;;;;;;5053591;28;20160;-51
2023/01/14 13:37:55;;;;;;;2.10;1.48;;;9.20;99.90;;;;;;5052971;28;20048;-47
2023/01/14 13:40:24;;;;;;;4.88;1.45;;;9.20;99.90;;;;;;5053104;28;20021;-50
2023/01/14 13:43:03;;;;;;;2.40;1.20;;;9.20;99.90;;;;;;5052247;28;20035;-52
2023/01/14 13:45:30;;;;;;;4.93;1.55;;;9.20;99.90;;;;;;5043595;28;20048;-50
2023/01/14 13:47:59;;;;;;;7.20;1.63;;;9.20;99.90;;;;;;5033259;28;20096;-51
2023/01/14 13:50:32;;;;;;;2.80;1.52;;;9.30;99.90;;;;;;5033214;28;20014;-49
2023/01/14 13:53:17;;;;;;;2.05;1.23;;;9.30;99.90;;;;;;5031878;28;20100;-53